createdAt,value
2022-10-13T00:00:06.897Z,22.25
2022-10-13T00:02:33.421Z,21.25
2022-10-13T00:04:59.862Z,22.27
2022-10-13T00:07:26.359Z,25.60
2022-10-13T00:09:52.830Z,19.88
2022-10-13T00:12:19.711Z,23.23
2022-10-13T00:14:46.405Z,22.40
2022-10-13T00:17:12.866Z,20.58
2022-10-13T00:19:39.327Z,25.48
2022-10-13T00:22:05.744Z,23.67
2022-10-13T00:24:32.197Z,24.67
2022-10-13T00:26:58.671Z,24.73
2022-10-13T00:29:25.217Z,21.55
2022-10-13T00:31:51.635Z,20.00
2022-10-13T00:34:18.151Z,22.58
2022-10-13T00:36:44.609Z,22.63
2022-10-13T00:39:11.035Z,21.50
2022-10-13T00:41:37.530Z,23.08
2022-10-13T00:44:07.198Z,20.38
2022-10-13T00:46:35.947Z,25.90
2022-10-13T00:49:08.033Z,21.77
2022-10-13T00:51:40.615Z,20.77
2022-10-13T00:54:11.451Z,19.33
2022-10-13T00:56:38.885Z,18.33
2022-10-13T00:59:13.686Z,14.85
2022-10-13T01:01:40.271Z,21.38
2022-10-13T01:04:06.801Z,20.23
2022-10-13T01:06:34.064Z,22.10
2022-10-13T01:09:00.514Z,20.08
2022-10-13T01:11:48.139Z,22.63
2022-10-13T01:14:49.359Z,28.98
2022-10-13T01:17:25.402Z,18.60
2022-10-13T01:20:10.889Z,22.10
2022-10-13T01:22:49.540Z,19.75
2022-10-13T01:25:24.545Z,21.90
2022-10-13T01:28:04.313Z,26.98
2022-10-13T01:30:37.720Z,25.90
2022-10-13T01:33:34.033Z,22.27
2022-10-13T01:36:18.852Z,26.38
2022-10-13T01:38:55.195Z,26.65
2022-10-13T01:41:37.553Z,28.85
2022-10-13T01:44:43.231Z,26.73
2022-10-13T01:47:12.098Z,26.15
2022-10-13T01:49:39.175Z,26.80
2022-10-13T01:52:11.205Z,28.35
2022-10-13T01:54:37.713Z,25.85
2022-10-13T01:57:04.300Z,25.70
2022-10-13T01:59:36.293Z,27.55
2022-10-13T02:02:25.214Z,24.52
2022-10-13T02:04:56.348Z,25.08
2022-10-13T02:08:09.002Z,37.00
2022-10-13T02:10:41.368Z,23.20
2022-10-13T02:13:11.744Z,29.30
2022-10-13T02:15:42.646Z,30.83
2022-10-13T02:18:12.952Z,30.27
2022-10-13T02:20:42.412Z,26.27
2022-10-13T02:23:13.527Z,25.80
2022-10-13T02:25:41.368Z,29.65
2022-10-13T02:28:09.253Z,29.20
2022-10-13T02:30:35.965Z,29.45
2022-10-13T02:33:03.076Z,30.02
2022-10-13T02:35:29.990Z,27.88
2022-10-13T02:37:56.849Z,30.92
2022-10-13T02:40:23.292Z,30.08
2022-10-13T02:42:49.782Z,23.50
2022-10-13T02:45:16.559Z,37.55
2022-10-13T02:47:43.044Z,29.13
2022-10-13T02:50:09.708Z,26.80
2022-10-13T02:52:36.346Z,30.30
2022-10-13T02:55:03.017Z,30.17
2022-10-13T02:57:29.535Z,28.50
2022-10-13T02:59:56.008Z,32.90
2022-10-13T03:02:23.280Z,32.38
2022-10-13T03:04:50.804Z,29.08
2022-10-13T03:07:17.353Z,31.88
2022-10-13T03:09:43.982Z,30.02
2022-10-13T03:12:10.607Z,27.83
2022-10-13T03:14:37.330Z,31.02
2022-10-13T03:17:03.826Z,26.42
2022-10-13T03:19:30.618Z,33.08
2022-10-13T03:21:57.047Z,30.45
2022-10-13T03:24:23.582Z,28.75
2022-10-13T03:26:50.027Z,31.67
2022-10-13T03:29:20.782Z,29.23
2022-10-13T03:31:47.227Z,32.28
2022-10-13T03:34:16.346Z,32.67
2022-10-13T03:36:42.908Z,28.15
2022-10-13T03:39:09.454Z,35.35
2022-10-13T03:41:35.910Z,30.63
2022-10-13T03:44:02.475Z,29.55
2022-10-13T03:46:30.438Z,29.40
2022-10-13T03:48:57.194Z,28.75
2022-10-13T03:51:23.863Z,33.50
2022-10-13T03:53:52.075Z,39.30
2022-10-13T03:56:24.399Z,35.65
2022-10-13T03:58:54.531Z,33.22
2022-10-13T04:01:23.133Z,31.33
2022-10-13T04:03:51.919Z,36.42
2022-10-13T04:06:18.392Z,28.50
2022-10-13T04:08:44.899Z,33.63
2022-10-13T04:11:14.305Z,35.63
2022-10-13T04:13:42.162Z,25.23
2022-10-13T04:16:14.643Z,29.40
2022-10-13T04:18:44.630Z,28.37
2022-10-13T04:21:14.593Z,31.60
2022-10-13T04:23:41.162Z,31.83
2022-10-13T04:26:14.117Z,36.83
2022-10-13T04:28:40.674Z,32.90
2022-10-13T04:31:07.310Z,33.90
2022-10-13T04:33:33.889Z,29.83
2022-10-13T04:36:04.248Z,37.70
2022-10-13T04:38:30.731Z,35.92
2022-10-13T04:40:57.185Z,36.88
2022-10-13T04:43:23.642Z,33.83
2022-10-13T04:45:50.082Z,47.00
2022-10-13T04:48:16.613Z,39.38
2022-10-13T04:50:43.056Z,32.05
2022-10-13T04:53:09.530Z,35.53
2022-10-13T04:55:37.166Z,39.63
2022-10-13T04:58:03.657Z,37.60
2022-10-13T05:00:30.230Z,37.67
2022-10-13T05:02:56.713Z,43.65
2022-10-13T05:05:23.170Z,32.95
2022-10-13T05:07:49.820Z,33.05
2022-10-13T05:10:16.350Z,31.75
2022-10-13T05:12:42.805Z,33.50
2022-10-13T05:15:09.783Z,31.30
2022-10-13T05:17:36.336Z,34.47
2022-10-13T05:20:03.192Z,40.58
2022-10-13T05:22:29.786Z,34.97
2022-10-13T05:24:56.274Z,33.28
2022-10-13T05:27:23.280Z,38.55
2022-10-13T05:29:49.723Z,34.75
2022-10-13T05:32:16.305Z,37.33
2022-10-13T05:34:42.904Z,34.35
2022-10-13T05:37:09.351Z,35.92
2022-10-13T05:39:35.877Z,39.08
2022-10-13T05:42:02.349Z,36.83
2022-10-13T05:44:28.903Z,39.88
2022-10-13T05:46:56.332Z,33.08
2022-10-13T05:49:22.881Z,35.95
2022-10-13T05:51:53.386Z,37.05
2022-10-13T05:54:24.681Z,36.30
2022-10-13T05:56:56.643Z,34.25
2022-10-13T05:59:27.311Z,37.63
2022-10-13T06:01:54.499Z,37.88
2022-10-13T06:04:25.675Z,31.77
2022-10-13T06:06:52.737Z,34.35
2022-10-13T06:09:19.460Z,35.03
2022-10-13T06:11:46.333Z,39.28
2022-10-13T06:14:12.823Z,40.13
2022-10-13T06:16:39.534Z,34.78
2022-10-13T06:19:06.320Z,39.15
2022-10-13T06:21:35.656Z,44.13
2022-10-13T06:24:02.500Z,35.78
2022-10-13T06:26:28.916Z,40.55
2022-10-13T06:28:59.259Z,41.42
2022-10-13T06:31:26.151Z,42.13
2022-10-13T06:33:52.618Z,33.78
2022-10-13T06:36:19.159Z,38.85
2022-10-13T06:38:45.811Z,40.63
2022-10-13T06:41:14.199Z,40.35
2022-10-13T06:43:41.201Z,42.22
2022-10-13T06:46:08.327Z,40.83
2022-10-13T06:48:34.880Z,37.22
2022-10-13T06:51:02.906Z,34.13
2022-10-13T06:53:29.522Z,35.25
2022-10-13T06:55:58.278Z,37.72
2022-10-13T06:58:24.906Z,36.45
2022-10-13T07:00:51.616Z,36.72
2022-10-13T07:03:18.133Z,31.73
2022-10-13T07:05:44.573Z,36.90
2022-10-13T07:08:11.014Z,34.60
2022-10-13T07:10:38.858Z,37.60
2022-10-13T07:13:05.353Z,39.28
2022-10-13T07:15:31.859Z,31.88
2022-10-13T07:17:58.534Z,36.90
2022-10-13T07:20:25.497Z,31.63
2022-10-13T07:22:55.129Z,32.83
2022-10-13T07:25:21.593Z,35.45
2022-10-13T07:27:48.042Z,31.80
2022-10-13T07:30:14.620Z,33.42
2022-10-13T07:32:42.220Z,37.33
2022-10-13T07:35:10.439Z,31.60
2022-10-13T07:37:37.565Z,33.38
2022-10-13T07:40:06.004Z,29.60
2022-10-13T07:42:32.924Z,31.52
2022-10-13T07:44:59.498Z,31.50
2022-10-13T07:47:26.058Z,35.60
2022-10-13T07:49:54.601Z,34.20
2022-10-13T07:52:21.753Z,31.55
2022-10-13T07:54:48.534Z,27.77
2022-10-13T07:57:15.334Z,39.83
2022-10-13T07:59:41.785Z,30.65
2022-10-13T08:02:09.926Z,28.45
2022-10-13T08:04:36.429Z,38.85
2022-10-13T08:07:05.543Z,28.08
2022-10-13T08:09:32.357Z,35.72
2022-10-13T08:12:00.774Z,30.92
2022-10-13T08:14:29.041Z,31.27
2022-10-13T08:16:56.016Z,31.17
2022-10-13T08:19:22.631Z,26.75
2022-10-13T08:21:58.108Z,29.60
2022-10-13T08:24:26.340Z,33.05
2022-10-13T08:26:52.813Z,28.58
2022-10-13T08:29:23.744Z,35.92
2022-10-13T08:31:52.204Z,25.58
2022-10-13T08:34:29.159Z,29.20
2022-10-13T08:36:56.676Z,33.30
2022-10-13T08:39:24.336Z,31.45
2022-10-13T08:41:51.002Z,32.42
2022-10-13T08:47:30.013Z,36.72
2022-10-13T08:50:00.773Z,33.58
2022-10-13T08:52:42.152Z,35.05
2022-10-13T08:55:17.985Z,39.72
2022-10-13T08:57:44.648Z,40.88
2022-10-13T09:00:13.298Z,34.42
2022-10-13T09:02:42.993Z,36.38
2022-10-13T09:05:17.468Z,31.88
2022-10-13T09:07:45.967Z,34.00
2022-10-13T09:10:15.430Z,33.80
2022-10-13T09:12:42.008Z,30.85
2022-10-13T09:15:11.372Z,35.83
2022-10-13T09:17:40.719Z,29.42
2022-10-13T09:20:19.859Z,34.25
2022-10-13T09:23:04.258Z,31.55
2022-10-13T09:25:43.282Z,37.20
2022-10-13T09:28:17.165Z,30.10
2022-10-13T09:30:46.865Z,35.65
2022-10-13T09:33:13.427Z,33.30
2022-10-13T09:35:44.920Z,35.22
2022-10-13T09:38:20.754Z,28.95
2022-10-13T09:41:04.707Z,34.35
2022-10-13T09:43:47.559Z,29.13
2022-10-13T09:46:24.261Z,34.75
2022-10-13T09:48:53.667Z,31.52
2022-10-13T09:51:34.671Z,37.60
2022-10-13T09:54:01.701Z,37.80
2022-10-13T09:56:43.510Z,33.70
2022-10-13T09:59:39.026Z,33.63
2022-10-13T10:02:31.764Z,32.53
2022-10-13T10:05:05.585Z,35.30
2022-10-13T10:07:33.076Z,31.83
2022-10-13T10:10:15.990Z,33.58
2022-10-13T10:12:44.324Z,31.98
2022-10-13T10:15:23.421Z,24.63
2022-10-13T10:17:58.665Z,33.85
2022-10-13T10:20:46.213Z,30.35
2022-10-13T10:23:36.987Z,24.25
2022-10-13T10:26:20.740Z,27.42
2022-10-13T10:29:08.670Z,32.90
2022-10-13T10:31:55.600Z,25.52
2022-10-13T10:34:37.076Z,32.80
2022-10-13T10:37:36.421Z,23.42
2022-10-13T10:40:03.511Z,24.00
2022-10-13T10:42:35.957Z,27.50
2022-10-13T10:45:12.934Z,18.65
2022-10-13T10:47:45.911Z,18.08
2022-10-13T10:50:18.559Z,16.17
2022-10-13T10:52:47.784Z,18.33
2022-10-13T10:55:19.361Z,19.45
2022-10-13T10:57:51.500Z,18.73
2022-10-13T11:00:22.316Z,21.08
2022-10-13T11:03:06.420Z,16.33
2022-10-13T11:05:57.718Z,16.98
2022-10-13T11:08:42.436Z,18.95
2022-10-13T11:11:29.242Z,16.40
2022-10-13T11:14:00.501Z,14.85
2022-10-13T11:16:36.049Z,18.52
2022-10-13T11:19:08.503Z,17.67
2022-10-13T11:21:59.134Z,22.55
2022-10-13T11:24:50.896Z,22.27
2022-10-13T11:27:41.621Z,16.55
2022-10-13T11:30:41.499Z,16.13
2022-10-13T11:33:32.820Z,15.95
2022-10-13T11:36:39.555Z,16.15
2022-10-13T11:39:27.849Z,13.30
2022-10-13T11:42:17.036Z,16.55
2022-10-13T11:45:06.649Z,16.80
2022-10-13T11:48:04.230Z,15.45
2022-10-13T11:51:08.820Z,16.67
2022-10-13T11:54:21.574Z,14.35
2022-10-13T11:56:56.858Z,14.80
2022-10-13T11:59:37.661Z,17.40
2022-10-13T12:02:25.009Z,14.93
2022-10-13T12:05:05.212Z,17.13
2022-10-13T12:07:37.424Z,16.52
2022-10-13T12:10:07.374Z,12.53
2022-10-13T12:12:34.098Z,14.48
2022-10-13T12:15:04.152Z,21.02
2022-10-13T12:17:41.219Z,16.83
2022-10-13T12:20:23.292Z,14.60
2022-10-13T12:22:51.309Z,20.30
2022-10-13T12:25:30.019Z,14.20
2022-10-13T12:27:59.678Z,11.00
2022-10-13T12:30:32.149Z,9.32
2022-10-13T12:33:00.742Z,13.30
2022-10-13T12:35:30.026Z,12.25
2022-10-13T12:37:58.080Z,14.85
2022-10-13T12:40:25.299Z,10.02
2022-10-13T12:42:52.096Z,18.17
2022-10-13T12:45:21.788Z,12.07
2022-10-13T12:47:51.853Z,12.20
2022-10-13T12:50:30.183Z,16.38
2022-10-13T12:53:24.184Z,11.73
2022-10-13T12:55:53.433Z,12.38
2022-10-13T12:58:30.226Z,14.65
2022-10-13T13:01:03.509Z,18.02
2022-10-13T13:03:30.548Z,12.90
2022-10-13T13:06:10.761Z,9.02
2022-10-13T13:08:39.945Z,11.95
2022-10-13T13:11:18.490Z,16.38
2022-10-13T13:13:45.066Z,13.07
2022-10-13T13:16:20.553Z,13.65
2022-10-13T13:18:49.382Z,8.98
2022-10-13T13:21:18.289Z,14.20
2022-10-13T13:23:51.222Z,9.27
2022-10-13T13:26:22.448Z,15.15
2022-10-13T13:28:51.661Z,14.25
2022-10-13T13:31:19.773Z,10.18
2022-10-13T13:33:47.069Z,14.18
2022-10-13T13:36:17.118Z,13.55
2022-10-13T13:38:44.117Z,15.45
2022-10-13T13:41:11.767Z,11.05
2022-10-13T13:43:39.135Z,11.10
2022-10-13T13:46:07.359Z,13.27
2022-10-13T13:48:34.010Z,9.07
2022-10-13T13:51:00.570Z,9.52
2022-10-13T13:53:27.022Z,9.60
2022-10-13T13:55:53.542Z,11.98
2022-10-13T13:58:20.754Z,9.13
2022-10-13T14:00:47.534Z,11.60
2022-10-13T14:03:19.161Z,11.38
2022-10-13T14:05:45.869Z,8.75
2022-10-13T14:08:12.335Z,14.38
2022-10-13T14:10:41.788Z,9.52
2022-10-13T14:13:08.252Z,14.15
2022-10-13T14:15:34.793Z,16.13
2022-10-13T14:18:01.255Z,6.88
2022-10-13T14:20:27.762Z,10.95
2022-10-13T14:22:54.268Z,12.82
2022-10-13T14:25:20.746Z,10.25
2022-10-13T14:27:47.188Z,14.10
2022-10-13T14:30:14.355Z,6.60
2022-10-13T14:32:40.906Z,10.85
2022-10-13T14:35:07.849Z,9.70
2022-10-13T14:37:34.737Z,7.78
2022-10-13T14:40:01.917Z,9.73
2022-10-13T14:42:28.408Z,11.20
2022-10-13T14:44:55.018Z,9.30
2022-10-13T14:47:21.948Z,8.32
2022-10-13T14:49:48.636Z,7.70
2022-10-13T14:52:15.054Z,13.07
2022-10-13T14:54:44.876Z,8.75
2022-10-13T14:57:15.691Z,13.02
2022-10-13T14:59:43.592Z,11.02
2022-10-13T15:02:13.831Z,9.95
2022-10-13T15:04:40.299Z,11.20
2022-10-13T15:07:06.765Z,9.55
2022-10-13T15:09:45.278Z,8.93
2022-10-13T15:12:20.168Z,12.63
2022-10-13T15:14:46.732Z,9.48
2022-10-13T15:17:13.247Z,9.02
2022-10-13T15:19:39.654Z,13.10
2022-10-13T15:22:06.292Z,11.30
2022-10-13T15:24:32.730Z,13.88
2022-10-13T15:26:59.158Z,12.25
2022-10-13T15:29:25.686Z,10.25
2022-10-13T15:31:52.147Z,15.13
2022-10-13T15:34:18.567Z,12.75
2022-10-13T15:36:45.247Z,11.35
2022-10-13T15:39:11.743Z,13.15
2022-10-13T15:41:38.172Z,13.88
2022-10-13T15:44:04.669Z,20.38
2022-10-13T15:46:31.570Z,9.38
2022-10-13T15:48:59.884Z,13.05
2022-10-13T15:51:27.093Z,14.38
2022-10-13T15:53:55.131Z,14.05
2022-10-13T15:56:21.574Z,9.80
2022-10-13T15:58:48.030Z,11.98
2022-10-13T16:01:14.916Z,13.80
2022-10-13T16:03:42.004Z,11.38
2022-10-13T16:06:10.740Z,11.30
2022-10-13T16:08:39.551Z,13.00
2022-10-13T16:11:15.787Z,9.77
2022-10-13T16:13:46.395Z,12.80
2022-10-13T16:16:12.972Z,21.45
2022-10-13T16:18:40.482Z,10.88
2022-10-13T16:21:15.795Z,8.65
2022-10-13T16:23:45.065Z,9.68
2022-10-13T16:26:11.619Z,8.70
2022-10-13T16:28:38.690Z,6.60
2022-10-13T16:31:13.946Z,7.00
2022-10-13T16:33:41.469Z,9.52
2022-10-13T16:36:11.051Z,10.48
2022-10-13T16:38:37.905Z,12.65
2022-10-13T16:41:09.885Z,8.38
2022-10-13T16:43:36.402Z,9.25
2022-10-13T16:46:04.805Z,7.93
2022-10-13T16:48:32.279Z,8.50
2022-10-13T16:51:00.779Z,6.63
2022-10-13T16:53:27.215Z,11.85
2022-10-13T16:55:53.692Z,10.82
2022-10-13T16:58:20.129Z,8.77
2022-10-13T17:00:46.808Z,10.32
2022-10-13T17:03:13.363Z,9.88
2022-10-13T17:05:39.796Z,11.35
2022-10-13T17:08:06.356Z,13.57
2022-10-13T17:10:34.558Z,9.90
2022-10-13T17:13:01.513Z,9.00
2022-10-13T17:15:27.989Z,7.97
2022-10-13T17:17:54.518Z,11.73
2022-10-13T17:20:20.965Z,13.55
2022-10-13T17:22:47.437Z,9.10
2022-10-13T17:25:13.951Z,8.38
2022-10-13T17:27:40.499Z,9.63
2022-10-13T17:30:07.431Z,10.80
2022-10-13T17:32:38.654Z,9.82
2022-10-13T17:35:06.228Z,10.27
2022-10-13T17:37:32.736Z,10.13
2022-10-13T17:39:59.154Z,9.48
2022-10-13T17:42:25.625Z,10.00
2022-10-13T17:44:52.060Z,8.38
2022-10-13T17:47:18.823Z,9.65
2022-10-13T17:52:11.997Z,9.73
2022-10-13T17:54:38.413Z,8.80
2022-10-13T17:57:05.559Z,8.30
2022-10-13T17:59:32.167Z,10.45
2022-10-13T18:01:58.685Z,8.43
2022-10-13T18:04:25.165Z,9.18
2022-10-13T18:06:51.576Z,10.15
2022-10-13T18:09:20.688Z,10.35
2022-10-13T18:11:51.579Z,11.10
2022-10-13T18:14:22.947Z,12.52
2022-10-13T18:16:50.823Z,13.65
2022-10-13T18:19:17.613Z,14.05
2022-10-13T18:21:44.218Z,9.88
2022-10-13T18:24:11.765Z,11.52
2022-10-13T18:26:38.609Z,9.57
2022-10-13T18:29:06.903Z,11.52
2022-10-13T18:31:35.518Z,10.43
2022-10-13T18:34:04.856Z,9.65
2022-10-13T18:36:35.280Z,11.45
2022-10-13T18:39:10.812Z,15.18
2022-10-13T18:41:37.942Z,17.05
2022-10-13T18:44:05.108Z,11.13
2022-10-13T18:46:35.656Z,14.70
2022-10-13T18:49:03.151Z,12.55
2022-10-13T18:51:35.593Z,13.35
2022-10-13T18:56:30.780Z,15.73
2022-10-13T18:58:59.977Z,12.80
2022-10-13T19:01:29.594Z,8.27
2022-10-13T19:03:56.927Z,11.65
2022-10-13T19:06:27.017Z,15.55
2022-10-13T19:08:58.634Z,13.20
2022-10-13T19:11:25.394Z,16.52
2022-10-13T19:13:52.411Z,9.40
2022-10-13T19:16:21.541Z,12.93
2022-10-13T19:18:49.445Z,12.00
2022-10-13T19:21:16.698Z,10.77
2022-10-13T19:23:43.471Z,14.93
2022-10-13T19:26:16.141Z,14.07
2022-10-13T19:28:43.750Z,12.40
2022-10-13T19:31:15.942Z,11.00
2022-10-13T19:33:44.722Z,12.10
2022-10-13T19:36:19.355Z,11.63
2022-10-13T19:38:45.959Z,16.35
2022-10-13T19:41:12.416Z,9.38
2022-10-13T19:43:38.900Z,13.50
2022-10-13T19:46:07.594Z,15.10
2022-10-13T19:48:34.485Z,12.43
2022-10-13T19:51:03.869Z,12.45
2022-10-13T19:53:30.358Z,14.20
2022-10-13T19:55:56.873Z,13.60
2022-10-13T19:58:23.787Z,9.48
2022-10-13T20:00:50.311Z,9.88
2022-10-13T20:03:16.832Z,11.32
2022-10-13T20:05:43.877Z,11.40
2022-10-13T20:08:11.892Z,13.50
2022-10-13T20:10:40.272Z,15.95
2022-10-13T20:13:07.290Z,12.30
2022-10-13T20:15:33.898Z,13.38
2022-10-13T20:18:00.597Z,13.45
2022-10-13T20:20:27.485Z,13.98
2022-10-13T20:22:53.971Z,10.52
2022-10-13T20:25:20.512Z,12.35
2022-10-13T20:27:47.479Z,12.55
2022-10-13T20:30:14.438Z,11.68
2022-10-13T20:32:41.168Z,12.60
2022-10-13T20:35:08.100Z,17.83
2022-10-13T20:37:34.862Z,11.50
2022-10-13T20:40:01.672Z,15.02
2022-10-13T20:42:28.345Z,13.00
2022-10-13T20:44:55.084Z,12.25
2022-10-13T20:47:21.814Z,18.20
2022-10-13T20:49:48.555Z,14.68
2022-10-13T20:52:15.091Z,15.90
2022-10-13T20:54:41.610Z,15.90
2022-10-13T20:57:08.120Z,18.40
2022-10-13T20:59:34.606Z,25.27
2022-10-13T21:02:01.067Z,14.73
2022-10-13T21:04:27.675Z,14.05
2022-10-13T21:06:54.178Z,15.80
2022-10-13T21:09:20.912Z,19.02
2022-10-13T21:11:47.379Z,16.48
2022-10-13T21:14:13.861Z,17.42
2022-10-13T21:16:40.486Z,19.08
2022-10-13T21:19:07.397Z,16.02
2022-10-13T21:21:34.778Z,14.30
2022-10-13T21:24:05.094Z,14.80
2022-10-13T21:26:32.740Z,16.67
2022-10-13T21:29:00.737Z,14.45
2022-10-13T21:31:31.295Z,18.00
2022-10-13T21:33:57.999Z,14.38
2022-10-13T21:36:30.140Z,19.10
2022-10-13T21:38:59.791Z,13.52
2022-10-13T21:41:27.311Z,17.92
2022-10-13T21:43:54.609Z,16.42
2022-10-13T21:46:28.111Z,17.15
2022-10-13T21:48:59.447Z,18.05
2022-10-13T21:51:29.605Z,27.45
2022-10-13T21:53:58.833Z,14.07
2022-10-13T21:56:26.417Z,17.17
2022-10-13T21:58:53.880Z,20.10
2022-10-13T22:01:20.935Z,13.25
2022-10-13T22:03:48.557Z,20.45
2022-10-13T22:06:18.979Z,18.85
2022-10-13T22:08:48.922Z,14.57
2022-10-13T22:11:16.391Z,20.05
2022-10-13T22:13:43.127Z,16.75
2022-10-13T22:16:18.692Z,13.25
2022-10-13T22:18:46.390Z,12.15
2022-10-13T22:21:19.100Z,15.32
2022-10-13T22:23:46.291Z,11.45
2022-10-13T22:26:14.813Z,15.98
2022-10-13T22:28:41.586Z,13.93
2022-10-13T22:31:12.799Z,14.48
2022-10-13T22:33:41.141Z,14.50
2022-10-13T22:36:17.501Z,16.40
2022-10-13T22:38:45.277Z,11.50
2022-10-13T22:41:14.643Z,13.25
2022-10-13T22:43:44.136Z,13.80
2022-10-13T22:46:12.326Z,15.82
2022-10-13T22:48:40.909Z,18.55
2022-10-13T22:51:08.135Z,11.70
2022-10-13T22:53:34.733Z,15.57
2022-10-13T22:56:05.410Z,16.02
2022-10-13T22:58:31.941Z,15.35
2022-10-13T23:01:04.703Z,15.55
2022-10-13T23:03:31.261Z,15.98
2022-10-13T23:05:57.750Z,18.58
2022-10-13T23:08:24.282Z,18.25
2022-10-13T23:10:50.800Z,20.02
2022-10-13T23:13:17.410Z,17.98
2022-10-13T23:15:43.844Z,17.75
2022-10-13T23:18:10.320Z,17.38
2022-10-13T23:20:43.385Z,19.65
2022-10-13T23:23:10.078Z,14.40
2022-10-13T23:25:37.514Z,15.35
2022-10-13T23:28:04.690Z,18.38
2022-10-13T23:30:31.178Z,13.77
2022-10-13T23:32:57.655Z,26.58
2022-10-13T23:35:24.226Z,26.52
2022-10-13T23:37:52.626Z,19.42
2022-10-13T23:40:19.260Z,16.92
2022-10-13T23:42:45.836Z,15.52
2022-10-13T23:45:12.322Z,19.20
2022-10-13T23:47:38.863Z,18.77
2022-10-13T23:50:05.859Z,20.23
2022-10-13T23:52:32.331Z,23.15
2022-10-13T23:54:58.823Z,18.33
2022-10-13T23:57:25.349Z,20.73
2022-10-13T23:59:51.930Z,24.65
